Antonino, Kansas
Current Conditions -  °F | °C
As of 4:15 AM on Monday 22 Dec 2014 (Local Time) from KHYS Reporting Station
Scattered Clouds Scattered Clouds  
Wind Chill: 34°   Ceiling: Unl
Heat Index: 39°   Visibility: 9mi
Dew Point: 34°   Wind: 7mph
Humidity: 81%   Direction: 280°W
Pressure: 29.52"   Gusts: NA
Location:  38.8338°N, 99.3297°W
Report Text: KHYS 221015Z AUTO 28006KT 9SM SCT110 04/01 A2952 RMK AO1
Loading
Personal Weather Stations






























Interactive Weather Map New forecast layout! Learn more

10-Day Weather Forecast

Advertisements
Track Severe Weather on mobile